Terminal Aerodrome Forecast
Issued by NWS Newport/Morehead City, NC

Home | Current Version | Previous Version | Text Only | Print | Product List | Glossary Off
Versions: 1 2 3 4 5 6 7 8 9 10 11 12 13 14 15 16 17 18 19

771
FTUS42 KMHX 271721
TAFEWN
TAF
KEWN 271721Z 2718/2818 21009KT P6SM SKC
     FM280300 21007KT P6SM VCTS BKN050CB
     FM280900 27005KT P6SM BKN080
     FM281500 VRB04KT P6SM SCT250=

USA.gov is the U.S. government's official web portal to all federal, state and local government web resources and services.